Andrews, SC

5:30 PM EDT on April 27, 2017 (GMT -0400)
Spring Gully | | Change Station
Active Advisory: Flood Warning

Elev 20 ft 33.38 °N, 79.42 °W | Updated 14 minutes ago

Clear
Clear
80.4 °F
Feels Like 83 °F
N
0.0
Wind Variable Wind from SE
Gusts 2.0 mph

Today
High -- | Low -- °F
--% Chance of Precip.
Yesterday
High -- | Low -- °F
Precip. -- in
Pressure 29.93 in
Visibility 10.0 miles
Clouds Clear
Heat Index 83 °F
Dew Point 69 °F
Humidity 68%
Rainfall 0.00 in
Snow Depth Not available.
6:33 AM 7:58 PM
Waxing Crescent, 3% visible
METAR KGGE 272115Z AUTO 19011KT 10SM CLR 26/18 A2993 RMK AO2
Pressure 29.93 in
Visibility 10.0 miles
Clouds Clear
Heat Index 83 °F
Dew Point 69 °F
Humidity 68%
Rainfall 0.00 in
Snow Depth Not available.
6:33 AM 7:58 PM
Waxing Crescent, 3% visible
METAR KGGE 272115Z AUTO 19011KT 10SM CLR 26/18 A2993 RMK AO2

Get Your Daily Forecast Email!

Thanks for signing up!

Be on the lookout for a verification email in your inbox.

You'll start receiving severe weather alerts in your inbox..

×

10-Day Weather Forecast

Almanac

Astronomy

Apr. 27, 2017 Rise Set
Actual Time
Civil Twilight
Nautical Twilight
Astronomical Twilight
Moon
Length of Visible Light
Length of Day
Tomorrow will be .
, % of the Moon is Illuminated

Today's Extremes

State Highs State Lows

Community

WunderPhotos

WunderBlog® & News

Nearby

Air Quality

  Air Quality AQ Index Pollutant
Not available.

Snow Depth

Station Depth Elevation

Earthquake Activity

City Distance Mag. Time & Date
Minimum magnitude displayed is 2.5.

Coastal Water Temperatures

Place Temperature

Stations

Nearby Weather Stations

Station Location Temp. Windchill Dew Point Humidity Wind Precip. Elev Updated Type
                   

Watches & Warnings

Flood Warning
Issued: 10:12 AM EDT Apr. 27, 2017 – National Weather Service

The Flood Warning continues for
the Santee river near Jamestown.
* At 9 am Thursday the stage was 11.4 feet.
* Flood stage is 10.0 feet.
* Minor flooding is occurring.
* Forecast, the river will continue rising to near 12.3 feet by early
Saturday afternoon. Additional rises may be possible thereafter.
* At 12.0 feet, several dirt logging roads are impassable.


Lat... Lon 3347 8002 3354 7998 3325 7937 3321 7938
          3320 7951 3329 7976